createdAt,value
2019-02-18T00:00:56.652Z,89.63
2019-02-18T00:03:25.510Z,89.07
2019-02-18T00:05:54.247Z,80.20
2019-02-18T00:08:23.088Z,74.93
2019-02-18T00:10:51.912Z,75.73
2019-02-18T00:13:20.715Z,73.37
2019-02-18T00:15:49.570Z,73.97
2019-02-18T00:18:18.376Z,71.77
2019-02-18T00:20:47.193Z,63.70
2019-02-18T00:23:16.114Z,51.77
2019-02-18T00:25:44.896Z,51.03
2019-02-18T00:28:13.601Z,52.80
2019-02-18T00:30:42.350Z,50.77
2019-02-18T00:33:11.186Z,48.90
2019-02-18T00:35:40.062Z,47.77
2019-02-18T00:38:08.674Z,45.00
2019-02-18T00:40:37.501Z,46.27
2019-02-18T00:43:06.370Z,55.83
2019-02-18T00:45:35.127Z,47.97
2019-02-18T00:48:03.948Z,51.20
2019-02-18T00:50:32.793Z,50.73
2019-02-18T00:53:03.837Z,49.90
2019-02-18T00:55:32.001Z,52.87
2019-02-18T00:58:00.798Z,49.63
2019-02-18T01:00:29.607Z,55.50
2019-02-18T01:02:58.598Z,71.80
2019-02-18T01:05:27.482Z,71.87
2019-02-18T01:07:56.760Z,68.00
2019-02-18T01:10:25.700Z,65.23
2019-02-18T01:12:54.507Z,78.20
2019-02-18T01:15:23.220Z,79.33
2019-02-18T01:17:52.178Z,82.63
2019-02-18T01:20:20.911Z,85.00
2019-02-18T01:22:49.812Z,83.27
2019-02-18T01:25:18.562Z,84.77
2019-02-18T01:27:47.255Z,87.97
2019-02-18T01:30:16.732Z,86.50
2019-02-18T01:32:45.742Z,80.47
2019-02-18T01:35:14.550Z,81.63
2019-02-18T01:37:46.007Z,81.30
2019-02-18T01:40:14.888Z,82.03
2019-02-18T01:42:43.640Z,76.80
2019-02-18T01:45:15.612Z,80.10
2019-02-18T01:47:44.351Z,80.67
2019-02-18T01:50:14.814Z,78.37
2019-02-18T01:52:43.559Z,78.83
2019-02-18T01:55:13.516Z,90.27
2019-02-18T01:57:42.314Z,86.20
2019-02-18T02:00:13.512Z,79.20
2019-02-18T02:02:42.363Z,88.90
2019-02-18T02:05:13.114Z,81.87
2019-02-18T02:07:41.858Z,83.60
2019-02-18T02:10:12.601Z,76.03
2019-02-18T02:12:41.475Z,75.10
2019-02-18T02:15:13.674Z,74.87
2019-02-18T02:17:42.593Z,78.30
2019-02-18T02:20:11.409Z,81.80
2019-02-18T02:22:40.224Z,86.67
2019-02-18T02:25:09.105Z,82.37
2019-02-18T02:27:37.943Z,80.60
2019-02-18T02:30:08.942Z,79.10
2019-02-18T02:32:37.745Z,80.70
2019-02-18T02:35:06.695Z,75.33
2019-02-18T02:37:35.368Z,76.43
2019-02-18T02:40:05.876Z,77.87
2019-02-18T02:42:34.587Z,78.23
2019-02-18T02:45:03.506Z,78.87
2019-02-18T02:47:32.348Z,75.67
2019-02-18T02:50:01.189Z,78.93
2019-02-18T02:52:30.036Z,72.97
2019-02-18T02:54:58.960Z,77.63
2019-02-18T02:57:27.804Z,77.20
2019-02-18T02:59:56.543Z,77.63
2019-02-18T03:02:25.379Z,77.47
2019-02-18T03:04:54.271Z,81.20
2019-02-18T03:07:23.141Z,81.47
2019-02-18T03:09:51.972Z,81.80
2019-02-18T03:12:20.785Z,80.20
2019-02-18T03:14:49.479Z,82.70
2019-02-18T03:17:18.331Z,81.40
2019-02-18T03:19:46.972Z,79.57
2019-02-18T03:22:15.650Z,85.87
2019-02-18T03:25:18.800Z,82.93
2019-02-18T03:27:48.877Z,84.20
2019-02-18T03:30:42.155Z,83.43
2019-02-18T03:33:14.275Z,84.27
2019-02-18T03:35:42.944Z,81.50
2019-02-18T03:38:11.767Z,81.83
2019-02-18T03:40:40.568Z,85.70
2019-02-18T03:43:09.401Z,89.73
2019-02-18T03:45:38.249Z,87.87
2019-02-18T03:48:07.001Z,89.20
2019-02-18T03:50:35.857Z,88.37
2019-02-18T03:53:04.905Z,88.53
2019-02-18T03:55:33.797Z,86.40
2019-02-18T03:58:02.573Z,82.57
2019-02-18T04:00:31.581Z,85.27
2019-02-18T04:03:00.607Z,84.07
2019-02-18T04:05:29.459Z,93.27
2019-02-18T04:07:58.335Z,95.53
2019-02-18T04:10:27.179Z,84.40
2019-02-18T04:12:55.857Z,82.13
2019-02-18T04:15:24.818Z,85.83
2019-02-18T04:17:53.682Z,83.40
2019-02-18T04:20:22.400Z,81.70
2019-02-18T04:22:51.434Z,80.43
2019-02-18T04:25:20.083Z,83.23
2019-02-18T04:27:48.780Z,86.47
2019-02-18T04:30:17.550Z,82.77
2019-02-18T04:32:46.391Z,81.13
2019-02-18T04:35:15.191Z,79.53
2019-02-18T04:37:43.982Z,81.10
2019-02-18T04:40:12.738Z,79.90
2019-02-18T04:42:41.374Z,83.43
2019-02-18T04:45:11.167Z,84.80
2019-02-18T04:47:40.064Z,91.27
2019-02-18T04:50:09.323Z,94.03
2019-02-18T04:52:38.242Z,85.47
2019-02-18T04:55:10.065Z,86.67
2019-02-18T04:57:38.857Z,84.27
2019-02-18T05:00:09.597Z,78.80
2019-02-18T05:02:38.467Z,78.80
2019-02-18T05:05:09.285Z,76.43
2019-02-18T05:07:38.130Z,76.73
2019-02-18T05:10:09.767Z,73.40
2019-02-18T05:12:38.602Z,68.93
2019-02-18T05:15:09.143Z,68.73
2019-02-18T05:17:37.948Z,71.50
2019-02-18T05:20:08.098Z,66.93
2019-02-18T05:22:36.928Z,74.80
2019-02-18T05:25:07.282Z,71.73
2019-02-18T05:27:35.992Z,70.73
2019-02-18T05:30:07.460Z,71.37
2019-02-18T05:32:36.277Z,69.53
2019-02-18T05:35:05.621Z,70.07
2019-02-18T05:37:34.397Z,71.27
2019-02-18T05:40:03.211Z,73.73
2019-02-18T05:42:32.014Z,77.70
2019-02-18T05:45:00.707Z,92.57
2019-02-18T05:47:29.610Z,93.27
2019-02-18T05:49:58.481Z,138.73
2019-02-18T05:52:27.436Z,126.20
2019-02-18T05:54:56.225Z,122.27
2019-02-18T05:57:25.066Z,132.63
2019-02-18T05:59:53.980Z,144.53
2019-02-18T06:02:22.933Z,134.23
2019-02-18T06:04:51.734Z,131.87
2019-02-18T06:07:20.539Z,116.57
2019-02-18T06:09:49.271Z,118.87
2019-02-18T06:12:18.224Z,133.57
2019-02-18T06:14:47.075Z,134.40
2019-02-18T06:17:15.921Z,134.77
2019-02-18T06:19:44.601Z,121.30
2019-02-18T06:22:13.785Z,116.50
2019-02-18T06:24:42.790Z,115.20
2019-02-18T06:27:12.083Z,107.57
2019-02-18T06:29:41.505Z,101.80
2019-02-18T06:32:10.666Z,100.10
2019-02-18T06:34:39.977Z,102.37
2019-02-18T06:37:08.806Z,100.20
2019-02-18T06:39:41.331Z,95.73
2019-02-18T06:42:07.891Z,95.77
2019-02-18T06:44:38.380Z,93.23
2019-02-18T06:47:08.186Z,96.77
2019-02-18T06:49:36.881Z,94.83
2019-02-18T06:52:05.822Z,93.17
2019-02-18T06:54:34.696Z,94.80
2019-02-18T06:57:05.095Z,99.83
2019-02-18T06:59:35.439Z,116.17
2019-02-18T07:02:08.795Z,105.37
2019-02-18T07:04:42.266Z,113.10
2019-02-18T07:07:15.555Z,108.97
2019-02-18T07:09:54.912Z,153.33
2019-02-18T07:12:28.029Z,145.87
2019-02-18T07:14:56.755Z,126.90
2019-02-18T07:17:25.705Z,118.90
2019-02-18T07:19:54.513Z,110.00
2019-02-18T07:22:23.208Z,102.57
2019-02-18T07:24:52.228Z,100.87
2019-02-18T07:27:21.885Z,100.43
2019-02-18T07:29:51.575Z,97.50
2019-02-18T07:32:20.626Z,119.50
2019-02-18T07:34:49.963Z,124.27
2019-02-18T07:37:18.930Z,124.23
2019-02-18T07:39:47.597Z,110.90
2019-02-18T07:42:16.570Z,111.03
2019-02-18T07:44:45.500Z,135.47
2019-02-18T07:47:14.149Z,162.73
2019-02-18T07:49:42.909Z,159.03
2019-02-18T07:52:11.770Z,125.17
2019-02-18T07:54:40.661Z,115.87
2019-02-18T07:57:09.411Z,113.67
2019-02-18T07:59:38.301Z,109.87
2019-02-18T08:02:07.394Z,107.37
2019-02-18T08:04:36.652Z,112.33
2019-02-18T08:07:05.483Z,111.83
2019-02-18T08:09:34.569Z,108.00
2019-02-18T08:12:03.694Z,110.20
2019-02-18T08:14:32.649Z,97.57
2019-02-18T08:17:01.713Z,95.63
2019-02-18T08:19:30.801Z,93.03
2019-02-18T08:21:59.943Z,88.80
2019-02-18T08:24:29.071Z,87.87
2019-02-18T08:26:58.024Z,86.50
2019-02-18T08:29:27.075Z,91.03
2019-02-18T08:31:56.137Z,94.00
2019-02-18T08:34:25.110Z,88.63
2019-02-18T08:36:54.212Z,81.90
2019-02-18T08:39:23.086Z,89.53
2019-02-18T08:41:52.059Z,92.47
2019-02-18T08:44:20.873Z,94.20
2019-02-18T08:46:50.110Z,89.20
2019-02-18T08:49:19.114Z,72.73
2019-02-18T08:51:47.948Z,76.77
2019-02-18T08:54:16.892Z,83.03
2019-02-18T08:56:45.568Z,80.30
2019-02-18T08:59:14.217Z,85.93
2019-02-18T09:01:42.916Z,76.87
2019-02-18T09:04:11.932Z,75.23
2019-02-18T09:06:40.768Z,75.13
2019-02-18T09:09:09.959Z,80.70
2019-02-18T09:11:38.828Z,95.60
2019-02-18T09:14:07.478Z,60.37
2019-02-18T09:16:36.817Z,71.70
2019-02-18T09:19:05.713Z,66.10
2019-02-18T09:21:35.286Z,67.67
2019-02-18T09:24:12.138Z,61.90
2019-02-18T09:26:41.285Z,59.13
2019-02-18T09:29:10.708Z,61.27
2019-02-18T09:31:39.638Z,79.20
2019-02-18T09:34:08.424Z,65.50
2019-02-18T09:36:37.616Z,66.10
2019-02-18T09:39:12.700Z,80.57
2019-02-18T09:41:41.577Z,122.07
2019-02-18T09:44:10.547Z,67.07
2019-02-18T09:46:40.386Z,66.63
2019-02-18T09:49:09.348Z,63.20
2019-02-18T09:51:38.220Z,66.17
2019-02-18T09:54:07.049Z,68.93
2019-02-18T09:56:36.970Z,67.17
2019-02-18T09:59:06.226Z,64.23
2019-02-18T10:01:34.976Z,62.30
2019-02-18T10:04:03.707Z,60.60
2019-02-18T10:06:32.308Z,60.90
2019-02-18T10:09:01.240Z,59.70
2019-02-18T10:11:30.143Z,60.73
2019-02-18T10:13:58.877Z,57.33
2019-02-18T10:16:27.753Z,56.13
2019-02-18T10:18:56.513Z,55.27
2019-02-18T10:21:25.521Z,55.17
2019-02-18T10:23:54.447Z,61.60
2019-02-18T10:26:23.100Z,67.37
2019-02-18T10:28:51.954Z,61.47
2019-02-18T10:31:20.785Z,67.67
2019-02-18T10:33:49.452Z,66.07
2019-02-18T10:36:18.075Z,67.50
2019-02-18T10:38:46.866Z,66.40
2019-02-18T10:41:15.648Z,71.30
2019-02-18T10:43:44.332Z,71.90
2019-02-18T10:46:13.048Z,65.67
2019-02-18T10:48:41.800Z,56.87
2019-02-18T10:51:10.592Z,63.80
2019-02-18T10:53:39.539Z,51.60
2019-02-18T10:56:08.202Z,45.27
2019-02-18T10:58:36.920Z,47.53
2019-02-18T11:01:06.239Z,44.03
2019-02-18T11:03:35.014Z,37.10
2019-02-18T11:06:03.895Z,36.60
2019-02-18T11:08:32.538Z,37.87
2019-02-18T11:11:01.249Z,39.60
2019-02-18T11:13:30.056Z,41.20
2019-02-18T11:15:58.992Z,37.80
2019-02-18T11:18:27.845Z,34.40
2019-02-18T11:20:56.574Z,35.63
2019-02-18T11:23:25.721Z,39.87
2019-02-18T11:25:54.610Z,34.87
2019-02-18T11:28:23.364Z,38.93
2019-02-18T11:30:52.208Z,36.80
2019-02-18T11:33:21.015Z,40.90
2019-02-18T11:35:49.757Z,40.33
2019-02-18T11:38:19.074Z,43.93
2019-02-18T11:40:47.768Z,42.27
2019-02-18T11:43:16.543Z,39.73
2019-02-18T11:45:45.372Z,38.07
2019-02-18T11:48:14.957Z,40.77
2019-02-18T11:50:43.643Z,33.77
2019-02-18T11:53:12.547Z,31.50
2019-02-18T11:55:41.171Z,32.87
2019-02-18T11:58:10.019Z,31.23
2019-02-18T12:00:38.940Z,26.40
2019-02-18T12:03:12.353Z,24.40
2019-02-18T12:05:38.224Z,23.37
2019-02-18T12:08:07.657Z,25.20
2019-02-18T12:10:36.385Z,25.87
2019-02-18T12:13:05.280Z,23.47
2019-02-18T12:15:34.127Z,26.50
2019-02-18T12:18:03.028Z,31.00
2019-02-18T12:20:31.838Z,21.70
2019-02-18T12:23:00.559Z,25.20
2019-02-18T12:25:29.489Z,24.73
2019-02-18T12:27:58.432Z,32.60
2019-02-18T12:30:27.145Z,21.07
2019-02-18T12:32:56.001Z,23.33
2019-02-18T12:35:31.003Z,19.13
2019-02-18T12:37:55.810Z,20.77
2019-02-18T12:40:24.762Z,21.40
2019-02-18T12:42:53.529Z,21.07
2019-02-18T12:45:22.431Z,24.03
2019-02-18T12:47:51.395Z,23.53
2019-02-18T12:50:20.109Z,27.87
2019-02-18T12:52:49.072Z,25.57
2019-02-18T12:55:18.007Z,24.33
2019-02-18T12:57:47.032Z,20.43
2019-02-18T13:00:16.346Z,18.73
2019-02-18T13:02:45.529Z,18.33
2019-02-18T13:05:14.652Z,20.43
2019-02-18T13:07:43.542Z,18.60
2019-02-18T13:10:12.822Z,17.00
2019-02-18T13:12:42.057Z,19.57
2019-02-18T13:15:13.592Z,18.57
2019-02-18T13:17:42.921Z,18.87
2019-02-18T13:20:11.875Z,19.10
2019-02-18T13:22:40.917Z,19.47
2019-02-18T13:25:10.635Z,17.00
2019-02-18T13:27:39.378Z,15.53
2019-02-18T13:30:16.376Z,18.20
2019-02-18T13:32:45.203Z,14.17
2019-02-18T13:35:14.064Z,14.33
2019-02-18T13:37:42.977Z,17.40
2019-02-18T13:40:14.748Z,14.93
2019-02-18T13:42:44.086Z,14.47
2019-02-18T13:45:13.023Z,22.43
2019-02-18T13:47:41.822Z,16.83
2019-02-18T13:50:12.634Z,18.63
2019-02-18T13:52:41.483Z,18.47
2019-02-18T13:55:11.783Z,21.17
2019-02-18T13:57:41.004Z,21.03
2019-02-18T14:00:14.764Z,23.00
2019-02-18T14:02:43.688Z,21.63
2019-02-18T14:05:12.610Z,21.60
2019-02-18T14:07:41.253Z,25.87
2019-02-18T14:10:10.205Z,23.07
2019-02-18T14:12:39.983Z,23.33
2019-02-18T14:15:12.107Z,37.43
2019-02-18T14:17:40.915Z,30.93
2019-02-18T14:20:17.396Z,41.57
2019-02-18T14:22:46.348Z,60.07
2019-02-18T14:25:15.645Z,26.47
2019-02-18T14:27:44.672Z,28.67
2019-02-18T14:30:15.740Z,17.67
2019-02-18T14:32:44.543Z,19.57
2019-02-18T14:35:14.378Z,86.50
2019-02-18T14:37:43.126Z,29.43
2019-02-18T14:40:13.888Z,16.43
2019-02-18T14:42:42.766Z,26.20
2019-02-18T14:45:11.631Z,53.13
2019-02-18T14:47:40.624Z,100.17
2019-02-18T14:50:10.597Z,132.80
2019-02-18T14:52:39.437Z,96.63
2019-02-18T14:55:09.413Z,119.03
2019-02-18T14:57:38.365Z,68.60
2019-02-18T15:00:22.179Z,74.37
2019-02-18T15:02:55.490Z,61.47
2019-02-18T15:05:25.668Z,59.60
2019-02-18T15:07:54.398Z,51.43
2019-02-18T15:10:23.196Z,61.20
2019-02-18T15:12:52.025Z,57.80
2019-02-18T15:15:21.542Z,66.23
2019-02-18T15:17:50.880Z,71.27
2019-02-18T15:20:20.254Z,44.67
2019-02-18T15:22:49.004Z,47.07
2019-02-18T15:25:17.878Z,38.23
2019-02-18T15:27:46.759Z,32.13
2019-02-18T15:30:17.068Z,28.37
2019-02-18T15:32:45.969Z,28.57
2019-02-18T15:35:15.788Z,28.70
2019-02-18T15:37:44.684Z,30.50
2019-02-18T15:40:15.424Z,31.23
2019-02-18T15:42:44.176Z,36.03
2019-02-18T15:45:13.155Z,87.33
2019-02-18T15:47:41.881Z,93.63
2019-02-18T15:50:12.353Z,131.63
2019-02-18T15:52:41.266Z,129.47
2019-02-18T15:55:11.199Z,106.00
2019-02-18T15:57:40.008Z,91.57
2019-02-18T16:00:17.267Z,103.83
2019-02-18T16:02:46.411Z,124.33
2019-02-18T16:05:15.224Z,148.23
2019-02-18T16:07:44.076Z,227.20
2019-02-18T16:10:12.901Z,204.07
2019-02-18T16:12:41.614Z,136.90
2019-02-18T16:15:11.923Z,139.53
2019-02-18T16:17:41.213Z,111.27
2019-02-18T16:20:14.499Z,104.33
2019-02-18T16:22:43.343Z,100.87
2019-02-18T16:25:23.341Z,114.43
2019-02-18T16:27:52.232Z,75.17
2019-02-18T16:30:21.343Z,95.70
2019-02-18T16:32:50.185Z,66.93
2019-02-18T16:35:19.028Z,89.90
2019-02-18T16:37:47.754Z,89.43
2019-02-18T16:40:18.218Z,74.47
2019-02-18T16:42:47.490Z,81.67
2019-02-18T16:45:16.453Z,97.07
2019-02-18T16:47:45.423Z,108.23
2019-02-18T16:50:14.568Z,340.90
2019-02-18T16:52:43.310Z,384.80
2019-02-18T16:55:16.242Z,302.57
2019-02-18T16:57:45.107Z,184.77
2019-02-18T17:00:22.260Z,155.63
2019-02-18T17:02:51.258Z,202.03
2019-02-18T17:05:20.168Z,354.17
2019-02-18T17:07:49.078Z,385.70
2019-02-18T17:10:18.019Z,357.07
2019-02-18T17:12:47.328Z,368.77
2019-02-18T17:15:16.083Z,361.80
2019-02-18T17:17:44.939Z,335.40
2019-02-18T17:20:14.031Z,191.90
2019-02-18T17:22:42.876Z,174.33
2019-02-18T17:25:13.011Z,182.40
2019-02-18T17:27:41.873Z,213.67
2019-02-18T17:30:15.706Z,215.37
2019-02-18T17:32:44.556Z,232.67
2019-02-18T17:35:14.318Z,235.80
2019-02-18T17:37:43.176Z,206.90
2019-02-18T17:40:13.912Z,190.17
2019-02-18T17:42:43.129Z,215.83
2019-02-18T17:45:13.877Z,189.27
2019-02-18T17:47:43.381Z,207.87
2019-02-18T17:50:14.155Z,175.23
2019-02-18T17:52:43.069Z,162.10
2019-02-18T17:55:14.066Z,147.20
2019-02-18T17:57:43.166Z,154.70
2019-02-18T18:00:21.571Z,130.13
2019-02-18T18:02:50.454Z,111.70
2019-02-18T18:05:19.275Z,109.67
2019-02-18T18:07:48.098Z,116.73
2019-02-18T18:10:17.338Z,131.23
2019-02-18T18:12:46.166Z,113.67
2019-02-18T18:15:17.909Z,128.77
2019-02-18T18:17:46.755Z,125.83
2019-02-18T18:20:15.653Z,126.87
2019-02-18T18:22:44.530Z,123.97
2019-02-18T18:25:14.678Z,137.93
2019-02-18T18:27:52.746Z,180.80
2019-02-18T18:30:21.706Z,161.20
2019-02-18T18:32:50.476Z,156.80
2019-02-18T18:35:19.518Z,149.67
2019-02-18T18:37:48.340Z,173.47
2019-02-18T18:40:20.785Z,216.53
2019-02-18T18:42:49.716Z,159.73
2019-02-18T18:45:18.912Z,131.27
2019-02-18T18:47:47.666Z,119.63
2019-02-18T18:50:23.104Z,119.23
2019-02-18T18:52:51.963Z,133.00
2019-02-18T18:55:22.789Z,136.10
2019-02-18T18:57:51.648Z,135.37
2019-02-18T19:00:24.218Z,128.13
2019-02-18T19:02:52.967Z,123.87
2019-02-18T19:05:22.383Z,156.60
2019-02-18T19:07:51.254Z,164.30
2019-02-18T19:10:20.178Z,169.53
2019-02-18T19:12:49.134Z,135.87
2019-02-18T19:15:18.759Z,145.13
2019-02-18T19:17:47.544Z,143.60
2019-02-18T19:20:16.495Z,146.57
2019-02-18T19:22:45.257Z,160.60
2019-02-18T19:25:14.278Z,140.10
2019-02-18T19:27:43.366Z,143.87
2019-02-18T19:30:15.137Z,142.00
2019-02-18T19:32:43.957Z,145.17
2019-02-18T19:35:12.801Z,145.47
2019-02-18T19:37:41.602Z,134.70
2019-02-18T19:40:12.356Z,130.40
2019-02-18T19:42:41.185Z,123.83
2019-02-18T19:45:13.211Z,122.53
2019-02-18T19:47:42.307Z,125.47
2019-02-18T19:50:11.221Z,131.50
2019-02-18T19:52:39.924Z,135.40
2019-02-18T19:55:10.743Z,144.27
2019-02-18T19:57:39.686Z,139.17
2019-02-18T20:00:11.725Z,135.97
2019-02-18T20:02:40.641Z,126.33
2019-02-18T20:05:10.520Z,146.47
2019-02-18T20:07:39.214Z,136.47
2019-02-18T20:10:10.398Z,164.40
2019-02-18T20:12:39.348Z,155.53
2019-02-18T20:15:11.665Z,159.27
2019-02-18T20:17:40.483Z,142.43
2019-02-18T20:20:14.520Z,132.00
2019-02-18T20:22:43.435Z,120.07
2019-02-18T20:25:12.955Z,125.13
2019-02-18T20:27:41.816Z,127.10
2019-02-18T20:30:12.811Z,137.17
2019-02-18T20:32:42.143Z,159.03
2019-02-18T20:35:11.497Z,182.77
2019-02-18T20:37:40.539Z,174.37
2019-02-18T20:40:12.262Z,161.97
2019-02-18T20:42:41.396Z,173.27
2019-02-18T20:45:14.657Z,177.83
2019-02-18T20:47:43.683Z,196.20
2019-02-18T20:50:13.976Z,203.87
2019-02-18T20:52:42.816Z,189.07
2019-02-18T20:55:14.564Z,150.00
2019-02-18T20:57:43.753Z,140.40
2019-02-18T21:00:18.909Z,133.83
2019-02-18T21:02:48.312Z,118.67
2019-02-18T21:05:17.065Z,118.50
2019-02-18T21:07:46.075Z,121.83
2019-02-18T21:10:21.830Z,122.23
2019-02-18T21:12:50.719Z,127.43
2019-02-18T21:15:19.478Z,136.40
2019-02-18T21:17:48.178Z,172.53
2019-02-18T21:20:16.960Z,119.50
2019-02-18T21:22:46.161Z,125.57
2019-02-18T21:25:15.045Z,134.43
2019-02-18T21:27:43.839Z,142.83
2019-02-18T21:30:16.760Z,153.60
2019-02-18T21:32:45.645Z,152.17
2019-02-18T21:35:14.948Z,149.00
2019-02-18T21:37:44.159Z,180.07
2019-02-18T21:40:13.508Z,175.73
2019-02-18T21:42:42.364Z,165.43
2019-02-18T21:45:13.748Z,182.70
2019-02-18T21:47:43.300Z,146.47
2019-02-18T21:50:12.642Z,145.87
2019-02-18T21:52:42.292Z,148.27
2019-02-18T21:55:13.042Z,139.00
2019-02-18T21:57:41.793Z,134.00
2019-02-18T22:00:23.538Z,128.23
2019-02-18T22:02:52.302Z,114.20
2019-02-18T22:05:21.135Z,95.67
2019-02-18T22:07:49.916Z,65.57
2019-02-18T22:10:18.730Z,50.03
2019-02-18T22:12:47.623Z,38.67
2019-02-18T22:15:16.547Z,47.63
2019-02-18T22:17:45.438Z,50.80
2019-02-18T22:20:15.226Z,62.50
2019-02-18T22:22:44.098Z,64.67
2019-02-18T22:25:13.628Z,72.70
2019-02-18T22:27:42.390Z,77.27
2019-02-18T22:30:14.001Z,81.07
2019-02-18T22:32:42.757Z,81.20
2019-02-18T22:35:11.621Z,79.10
2019-02-18T22:37:40.721Z,81.87
2019-02-18T22:40:11.561Z,78.10
2019-02-18T22:42:40.394Z,82.23
2019-02-18T22:45:12.832Z,84.07
2019-02-18T22:47:41.590Z,88.53
2019-02-18T22:50:11.902Z,89.63
2019-02-18T22:52:40.768Z,93.37
2019-02-18T22:55:11.105Z,87.60
2019-02-18T22:57:39.943Z,89.37
2019-02-18T23:00:11.838Z,92.97
2019-02-18T23:02:43.687Z,109.57
2019-02-18T23:05:12.844Z,129.30
2019-02-18T23:07:42.229Z,138.13
2019-02-18T23:10:11.064Z,131.23
2019-02-18T23:12:40.052Z,104.67
2019-02-18T23:15:09.006Z,107.50
2019-02-18T23:17:37.658Z,98.73
2019-02-18T23:20:06.715Z,90.80
2019-02-18T23:22:35.832Z,69.27
2019-02-18T23:25:04.700Z,42.83
2019-02-18T23:27:33.517Z,42.67
2019-02-18T23:30:02.325Z,30.40
2019-02-18T23:32:31.109Z,30.40
2019-02-18T23:34:59.902Z,29.90
2019-02-18T23:37:29.241Z,28.13
2019-02-18T23:39:57.934Z,23.97
2019-02-18T23:42:26.761Z,24.87
2019-02-18T23:44:59.262Z,20.43
2019-02-18T23:47:25.977Z,19.17
2019-02-18T23:49:54.692Z,22.57
2019-02-18T23:52:23.398Z,23.87
2019-02-18T23:54:52.131Z,25.37
2019-02-18T23:57:20.854Z,20.77
2019-02-18T23:59:49.737Z,23.27
